Time;durP1;ratioP1;P1;durP2;ratioP2;P2;SDS_P1;SDS_P2;PMS_P1;PMS_P2;Temp;Humidity;BMP_temperature;BMP_pressure;BME280_temperature;BME280_humidity;BME280_pressure;Samples;Min_cycle;Max_cycle;Signal;HPM_P1;HPM_P2
2021/04/11 00:01:09;;;;;;;8.40;1.50;;;12.30;69.20;;;;;;5117308;28;20456;-41
2021/04/11 00:03:42;;;;;;;3.37;1.60;;;12.20;73.10;;;;;;5116734;28;20560;-40
2021/04/11 00:06:13;;;;;;;2.67;1.50;;;12.20;73.80;;;;;;5118026;28;20441;-40
2021/04/11 00:08:43;;;;;;;3.07;1.57;;;12.20;75.20;;;;;;5120168;28;20452;-39
2021/04/11 00:11:14;;;;;;;3.37;1.50;;;12.20;75.50;;;;;;5115842;27;20453;-40
2021/04/11 00:13:45;;;;;;;1.93;1.40;;;12.30;71.20;;;;;;5115955;28;20465;-39
2021/04/11 00:16:15;;;;;;;2.40;2.17;;;12.10;73.50;;;;;;5119122;28;20459;-39
2021/04/11 00:18:45;;;;;;;2.30;1.30;;;12.10;76.40;;;;;;5118657;28;20569;-40
2021/04/11 00:21:16;;;;;;;1.43;1.03;;;12.20;77.40;;;;;;5118905;28;20452;-41
2021/04/11 00:23:46;;;;;;;2.43;1.23;;;12.10;70.20;;;;;;5118507;28;20624;-40
2021/04/11 00:26:18;;;;;;;2.87;1.50;;;12.00;68.60;;;;;;5118712;28;20469;-39
2021/04/11 00:28:48;;;;;;;4.00;1.70;;;11.90;68.40;;;;;;5118344;28;20461;-40
2021/04/11 00:31:18;;;;;;;3.23;2.20;;;11.80;67.90;;;;;;5117525;28;20464;-41
2021/04/11 00:33:48;;;;;;;5.03;1.53;;;11.80;68.70;;;;;;5118690;28;20455;-41
2021/04/11 00:36:20;;;;;;;3.90;1.77;;;11.50;70.60;;;;;;5119232;28;20497;-40
2021/04/11 00:38:50;;;;;;;2.60;1.67;;;11.40;71.10;;;;;;5117655;28;20522;-40
2021/04/11 00:41:25;;;;;;;3.13;1.87;;;11.40;71.10;;;;;;5117140;28;20209;-40
2021/04/11 00:43:56;;;;;;;1.85;1.25;;;11.30;71.90;;;;;;5117498;28;20458;-40
2021/04/11 00:46:38;;;;;;;1.50;1.40;;;11.30;74.00;;;;;;5116675;28;20296;-40
2021/04/11 00:49:14;;;;;;;1.60;1.50;;;11.40;74.50;;;;;;5117831;28;20216;-41
2021/04/11 00:51:44;;;;;;;2.07;1.53;;;11.50;74.20;;;;;;5118353;28;20449;-41
2021/04/11 00:54:15;;;;;;;1.83;0.90;;;11.70;75.40;;;;;;5116301;28;20450;-37
2021/04/11 00:56:46;;;;;;;2.10;0.90;;;11.90;67.20;;;;;;5117761;28;20503;-42
2021/04/11 00:59:18;;;;;;;1.57;1.10;;;12.10;63.80;;;;;;5118231;28;20493;-40
2021/04/11 01:01:49;;;;;;;2.07;1.50;;;12.10;62.30;;;;;;5116511;28;20452;-40
2021/04/11 01:04:20;;;;;;;2.17;1.43;;;12.00;63.50;;;;;;5118228;28;20497;-40
2021/04/11 01:06:54;;;;;;;1.97;1.03;;;12.00;63.00;;;;;;5117127;28;20461;-41
2021/04/11 01:09:31;;;;;;;1.27;1.00;;;11.90;67.30;;;;;;5118552;28;20494;-37
2021/04/11 01:12:05;;;;;;;2.63;1.23;;;11.80;65.80;;;;;;5120357;28;20449;-40
2021/04/11 01:14:36;;;;;;;1.70;1.42;;;11.60;68.30;;;;;;5124106;28;20568;-39
2021/04/11 01:17:08;;;;;;;6.20;1.30;;;11.30;69.50;;;;;;5124261;28;20234;-40
2021/04/11 01:19:40;;;;;;;2.83;1.48;;;11.10;69.60;;;;;;5124216;28;20502;-41
2021/04/11 01:22:20;;;;;;;1.70;1.30;;;10.90;72.60;;;;;;5123601;28;20203;-40
2021/04/11 01:24:54;;;;;;;2.57;1.40;;;11.00;74.20;;;;;;5124123;28;20213;-38
2021/04/11 01:27:28;;;;;;;3.30;1.60;;;11.10;71.10;;;;;;5123018;28;20453;-38
2021/04/11 01:29:59;;;;;;;3.00;1.58;;;11.20;68.40;;;;;;5124024;28;20457;-39
2021/04/11 01:32:30;;;;;;;3.97;1.45;;;11.20;64.90;;;;;;5123577;28;20214;-40
2021/04/11 01:35:01;;;;;;;1.85;1.15;;;11.20;65.00;;;;;;5123409;28;20302;-40
2021/04/11 01:37:35;;;;;;;1.95;1.15;;;11.10;64.00;;;;;;5123803;28;20212;-40
2021/04/11 01:40:09;;;;;;;1.95;1.10;;;10.90;62.60;;;;;;5124359;28;20203;-41
2021/04/11 01:42:39;;;;;;;2.92;1.02;;;11.00;64.00;;;;;;5122217;28;20211;-40
2021/04/11 01:45:13;;;;;;;2.10;1.30;;;10.90;62.80;;;;;;5122708;28;20242;-40
2021/04/11 01:47:43;;;;;;;2.08;1.30;;;10.90;63.60;;;;;;5123619;28;20210;-39
2021/04/11 01:50:14;;;;;;;4.07;1.85;;;10.90;63.20;;;;;;5123689;28;20209;-40
2021/04/11 01:52:47;;;;;;;3.80;1.20;;;10.90;64.80;;;;;;5122530;28;20212;-39
2021/04/11 01:55:37;;;;;;;1.02;0.93;;;10.90;64.50;;;;;;5120556;28;20273;-38
2021/04/11 01:58:08;;;;;;;2.22;1.50;;;10.80;62.80;;;;;;5122577;28;20213;-40
2021/04/11 02:00:40;;;;;;;2.30;1.08;;;10.70;63.10;;;;;;5123533;28;20239;-39
2021/04/11 02:03:13;;;;;;;0.88;0.80;;;10.60;63.90;;;;;;5122832;28;20207;-35
2021/04/11 02:05:44;;;;;;;1.50;0.95;;;10.40;62.00;;;;;;5123151;28;20209;-40
2021/04/11 02:08:19;;;;;;;4.35;1.10;;;10.30;63.30;;;;;;5123369;28;20255;-40
2021/04/11 02:10:53;;;;;;;0.98;0.80;;;10.20;65.60;;;;;;5124184;28;20195;-39
2021/04/11 02:13:25;;;;;;;3.28;1.38;;;10.00;66.20;;;;;;5123119;28;20201;-41
2021/04/11 02:15:58;;;;;;;2.38;1.17;;;10.00;68.10;;;;;;5118789;28;20210;-40
2021/04/11 02:18:29;;;;;;;2.65;1.55;;;9.90;69.10;;;;;;5132194;27;20227;-40
2021/04/11 02:21:00;;;;;;;2.75;1.27;;;9.80;70.00;;;;;;5123770;28;20197;-40
2021/04/11 02:23:32;;;;;;;3.58;1.67;;;9.70;69.60;;;;;;5123332;28;20207;-40
2021/04/11 02:26:07;;;;;;;3.53;1.85;;;9.60;70.70;;;;;;5123962;28;20242;-39
2021/04/11 02:28:38;;;;;;;3.00;1.52;;;9.40;73.00;;;;;;5123290;28;20189;-39
2021/04/11 02:31:18;;;;;;;3.08;1.30;;;9.40;74.90;;;;;;5121932;28;20210;-40
2021/04/11 02:33:57;;;;;;;3.25;1.63;;;9.40;74.80;;;;;;5115513;28;20201;-37
2021/04/11 02:36:30;;;;;;;5.68;1.60;;;9.30;75.30;;;;;;5121940;28;20297;-36
2021/04/11 02:39:00;;;;;;;3.97;1.70;;;9.20;76.00;;;;;;5123441;28;20364;-39
2021/04/11 02:41:31;;;;;;;1.63;1.40;;;9.20;75.70;;;;;;5122773;28;20192;-39
2021/04/11 02:44:02;;;;;;;3.80;1.67;;;9.10;76.20;;;;;;5123413;28;20195;-39
2021/04/11 02:46:35;;;;;;;2.95;1.60;;;9.10;76.70;;;;;;5122754;28;20213;-40
2021/04/11 02:49:05;;;;;;;1.90;1.65;;;9.00;77.80;;;;;;5123181;28;20279;-40
2021/04/11 02:51:37;;;;;;;2.58;1.60;;;8.80;79.30;;;;;;5112077;28;20264;-39
2021/04/11 02:54:09;;;;;;;2.55;1.83;;;8.80;80.70;;;;;;5123137;28;20204;-41
2021/04/11 02:56:41;;;;;;;4.05;1.90;;;8.80;81.70;;;;;;5122512;28;20249;-40
2021/04/11 02:59:13;;;;;;;2.83;1.50;;;8.70;82.00;;;;;;5123947;28;20280;-38
2021/04/11 03:01:45;;;;;;;1.55;1.10;;;8.70;81.60;;;;;;5122834;28;20603;-40
2021/04/11 03:04:18;;;;;;;5.18;1.73;;;8.60;82.70;;;;;;5122532;28;20204;-40
2021/04/11 03:06:53;;;;;;;3.58;1.65;;;8.50;82.80;;;;;;5122860;28;20304;-40
2021/04/11 03:09:26;;;;;;;2.83;2.10;;;8.50;84.50;;;;;;5125749;28;20199;-41
2021/04/11 03:11:59;;;;;;;6.10;2.90;;;8.40;83.30;;;;;;5126614;28;20548;-38
2021/04/11 03:14:31;;;;;;;4.53;1.88;;;8.40;83.70;;;;;;5127569;28;20207;-39
2021/04/11 03:17:03;;;;;;;5.22;1.50;;;8.30;83.90;;;;;;5126456;28;20200;-35
2021/04/11 03:19:38;;;;;;;5.68;1.73;;;8.20;84.90;;;;;;5118780;28;20289;-40
2021/04/11 03:22:08;;;;;;;6.50;2.22;;;8.20;85.40;;;;;;5125890;28;20244;-37
2021/04/11 03:24:39;;;;;;;2.47;1.52;;;8.20;87.80;;;;;;5125184;28;20644;-38
2021/04/11 03:27:17;;;;;;;6.93;2.28;;;8.20;90.20;;;;;;5125855;28;20210;-40
2021/04/11 03:29:51;;;;;;;5.68;2.40;;;8.20;90.80;;;;;;5127321;28;20259;-39
2021/04/11 03:32:25;;;;;;;3.28;1.65;;;8.20;93.50;;;;;;5126607;28;20208;-38
2021/04/11 03:35:19;;;;;;;2.80;1.70;;;8.10;90.70;;;;;;5125548;28;20223;-39
2021/04/11 03:37:51;;;;;;;7.22;3.15;;;7.90;90.30;;;;;;5124347;28;20218;-39
2021/04/11 03:40:26;;;;;;;2.92;1.60;;;7.90;90.50;;;;;;5126431;28;20196;-39
2021/04/11 03:43:01;;;;;;;2.17;1.70;;;7.80;91.70;;;;;;5125639;28;20196;-39
2021/04/11 03:45:33;;;;;;;3.88;2.15;;;7.80;92.40;;;;;;5124535;28;20227;-39
2021/04/11 03:48:19;;;;;;;4.97;2.20;;;7.70;91.60;;;;;;5114601;28;20195;-40
2021/04/11 03:50:56;;;;;;;2.78;2.10;;;7.60;91.20;;;;;;5127055;28;20237;-38
2021/04/11 03:53:34;;;;;;;5.43;2.10;;;7.60;91.40;;;;;;5125237;28;20215;-40
2021/04/11 03:56:09;;;;;;;2.08;1.98;;;7.60;91.00;;;;;;5125201;28;20204;-39
2021/04/11 03:58:44;;;;;;;3.10;1.85;;;7.50;90.40;;;;;;5125468;28;20215;-37
2021/04/11 04:01:18;;;;;;;3.58;1.83;;;7.50;90.20;;;;;;5126362;28;20275;-38
2021/04/11 04:03:51;;;;;;;2.85;1.45;;;7.50;90.80;;;;;;5125709;28;20226;-38
2021/04/11 04:06:26;;;;;;;4.88;1.95;;;7.40;90.00;;;;;;5125082;28;20616;-40
2021/04/11 04:08:57;;;;;;;2.08;1.60;;;7.40;91.00;;;;;;5125546;28;20207;-41
2021/04/11 04:11:52;;;;;;;2.85;1.80;;;7.40;91.00;;;;;;5114142;28;20244;-35
2021/04/11 04:14:36;;;;;;;3.03;1.50;;;7.40;91.30;;;;;;5123531;28;20200;-39
2021/04/11 04:17:17;;;;;;;3.75;1.85;;;7.30;91.50;;;;;;5123974;28;20203;-37
2021/04/11 04:20:00;;;;;;;2.47;1.95;;;7.20;91.90;;;;;;5123705;28;20488;-40
2021/04/11 04:23:00;;;;;;;3.80;2.05;;;7.20;92.00;;;;;;5123133;28;20376;-38
2021/04/11 04:25:46;;;;;;;5.10;2.25;;;7.20;92.60;;;;;;5121054;28;20219;-40
2021/04/11 04:28:30;;;;;;;3.17;1.55;;;7.10;92.60;;;;;;5123828;28;20580;-39
2021/04/11 04:31:04;;;;;;;2.83;1.40;;;7.10;93.30;;;;;;5125042;28;20272;-39
2021/04/11 04:33:56;;;;;;;3.58;1.52;;;7.00;93.80;;;;;;5125583;28;20261;-40
2021/04/11 04:36:44;;;;;;;3.13;1.58;;;7.00;93.70;;;;;;5120549;28;20200;-39
2021/04/11 04:39:30;;;;;;;3.05;1.45;;;7.00;94.50;;;;;;5117434;28;20227;-39
2021/04/11 04:42:15;;;;;;;2.75;1.70;;;6.90;94.40;;;;;;5100569;28;20207;-38
2021/04/11 04:44:58;;;;;;;3.53;2.42;;;6.80;94.30;;;;;;5117575;28;20244;-39
2021/04/11 04:47:42;;;;;;;2.15;2.03;;;6.90;94.10;;;;;;5116610;28;20216;-40
2021/04/11 04:50:19;;;;;;;4.60;1.98;;;6.80;95.10;;;;;;5117104;28;20210;-40
2021/04/11 04:53:02;;;;;;;4.97;2.10;;;6.70;95.50;;;;;;5118424;28;20271;-39
2021/04/11 04:55:35;;;;;;;3.47;1.60;;;6.70;95.90;;;;;;5117653;28;20206;-39
2021/04/11 04:58:11;;;;;;;3.00;1.60;;;6.70;95.60;;;;;;5116649;28;20227;-40
2021/04/11 05:00:46;;;;;;;8.10;1.85;;;6.60;95.90;;;;;;5118454;28;20322;-39
2021/04/11 05:03:19;;;;;;;4.47;2.00;;;6.60;96.40;;;;;;5118218;28;20199;-39
2021/04/11 05:06:05;;;;;;;8.50;2.92;;;6.60;97.30;;;;;;5117918;28;20203;-38
2021/04/11 05:08:41;;;;;;;3.55;2.80;;;6.60;96.50;;;;;;5117379;28;20210;-35
2021/04/11 05:11:16;;;;;;;5.72;3.15;;;6.60;97.40;;;;;;5117846;28;20306;-38
2021/04/11 05:13:53;;;;;;;4.65;2.90;;;6.50;97.00;;;;;;5118454;28;20204;-38
2021/04/11 05:16:30;;;;;;;4.32;2.95;;;6.50;97.60;;;;;;5116292;28;20203;-39
2021/04/11 05:19:07;;;;;;;3.28;2.45;;;6.40;97.60;;;;;;5116196;28;20231;-38
2021/04/11 05:21:41;;;;;;;5.18;3.20;;;6.30;98.20;;;;;;5117891;28;20208;-39
2021/04/11 05:24:15;;;;;;;6.28;2.50;;;6.30;98.60;;;;;;5109613;28;20226;-40
2021/04/11 05:26:47;;;;;;;4.35;2.42;;;6.30;99.60;;;;;;5115577;28;20210;-38
2021/04/11 05:29:24;;;;;;;2.92;2.20;;;6.20;99.50;;;;;;5122616;28;20647;-38
2021/04/11 05:31:57;;;;;;;5.88;2.55;;;6.20;99.70;;;;;;5123463;28;20188;-37
2021/04/11 05:34:31;;;;;;;3.85;2.30;;;6.20;99.90;;;;;;5124638;28;20192;-39
2021/04/11 05:37:05;;;;;;;4.47;2.50;;;6.20;99.90;;;;;;5123407;28;20261;-37
2021/04/11 05:39:48;;;;;;;2.95;2.13;;;6.20;99.90;;;;;;5123378;28;20223;-37
2021/04/11 05:42:22;;;;;;;4.82;2.70;;;6.20;99.90;;;;;;5106490;28;20208;-40
2021/04/11 05:47:56;;;;;;;6.82;2.63;;;6.10;99.90;;;;;;5122380;28;20192;-34
2021/04/11 05:50:33;;;;;;;3.70;2.35;;;6.10;99.90;;;;;;5122716;28;20188;-36
2021/04/11 05:53:08;;;;;;;4.05;2.72;;;6.00;99.90;;;;;;5123535;28;20595;-36
2021/04/11 05:55:41;;;;;;;4.88;2.80;;;6.00;99.90;;;;;;5123386;28;20203;-37
2021/04/11 05:58:15;;;;;;;4.72;2.83;;;5.90;99.90;;;;;;5122056;28;20221;-35
2021/04/11 06:00:49;;;;;;;3.60;2.30;;;6.00;99.90;;;;;;5124058;28;20248;-38
2021/04/11 06:03:23;;;;;;;5.07;2.90;;;5.90;99.90;;;;;;5123556;27;20222;-36
2021/04/11 06:06:07;;;;;;;2.63;2.33;;;6.00;99.90;;;;;;5122904;28;20207;-39
2021/04/11 06:08:46;;;;;;;5.65;2.65;;;5.90;99.90;;;;;;5122172;28;20210;-39
2021/04/11 06:11:24;;;;;;;3.40;1.95;;;5.90;99.90;;;;;;5123877;28;20282;-37
2021/04/11 06:14:00;;;;;;;6.85;2.10;;;5.90;99.90;;;;;;5120038;28;20188;-40
2021/04/11 06:16:31;;;;;;;4.38;2.15;;;5.90;99.90;;;;;;5111525;28;20208;-35
2021/04/11 06:19:03;;;;;;;3.28;1.70;;;5.90;99.90;;;;;;5123144;28;20230;-38
2021/04/11 06:21:46;;;;;;;3.35;1.98;;;5.80;99.90;;;;;;5122790;28;20289;-37
2021/04/11 06:24:32;;;;;;;4.20;2.00;;;5.80;99.90;;;;;;5122526;28;20221;-37
2021/04/11 06:27:11;;;;;;;6.00;2.40;;;5.80;99.90;;;;;;5114628;28;20199;-39
2021/04/11 06:29:54;;;;;;;2.55;2.35;;;5.80;99.90;;;;;;5123571;28;20249;-40
2021/04/11 06:32:26;;;;;;;3.97;2.47;;;5.80;99.90;;;;;;5122977;28;20277;-37
2021/04/11 06:35:03;;;;;;;2.92;1.80;;;5.70;99.90;;;;;;5122978;28;20250;-40
2021/04/11 06:37:36;;;;;;;4.95;2.28;;;5.70;99.90;;;;;;5122862;28;20225;-36
2021/04/11 06:40:16;;;;;;;4.95;1.95;;;5.70;99.90;;;;;;5122937;28;20220;-36
2021/04/11 06:43:09;;;;;;;4.65;1.83;;;5.60;99.90;;;;;;5122435;28;20256;-39
2021/04/11 06:45:44;;;;;;;3.88;2.58;;;5.50;99.90;;;;;;5127064;28;20249;-37
2021/04/11 06:48:46;;;;;;;5.05;2.10;;;5.50;99.90;;;;;;5126994;28;20240;-39
2021/04/11 06:51:52;;;;;;;2.85;1.77;;;5.50;99.90;;;;;;5047372;28;20202;-39
2021/04/11 06:54:52;;;;;;;5.18;2.50;;;5.40;99.90;;;;;;5015257;28;20194;-38
2021/04/11 06:57:49;;;;;;;4.18;2.85;;;5.40;99.90;;;;;;5042922;28;20198;-38
2021/04/11 07:00:44;;;;;;;7.40;2.65;;;5.40;99.90;;;;;;5039512;28;20321;-35
2021/04/11 07:04:10;;;;;;;4.13;2.00;;;5.40;99.90;;;;;;5035132;28;20261;-38
2021/04/11 07:07:29;;;;;;;6.80;2.53;;;5.30;99.90;;;;;;4980160;28;20366;-39
2021/04/11 07:10:17;;;;;;;3.88;1.98;;;5.30;99.90;;;;;;4962158;28;20253;-39
2021/04/11 07:13:31;;;;;;;4.28;1.85;;;5.30;99.90;;;;;;4984062;28;20219;-38
2021/04/11 07:16:27;;;;;;;3.50;2.15;;;5.20;99.90;;;;;;4982186;28;20674;-40
2021/04/11 07:19:29;;;;;;;3.50;2.28;;;5.30;99.90;;;;;;4988561;28;20224;-37
2021/04/11 07:22:21;;;;;;;3.53;2.15;;;5.20;99.90;;;;;;4970288;28;20231;-36
2021/04/11 07:25:18;;;;;;;7.15;2.60;;;5.10;99.90;;;;;;4984365;28;20264;-34
2021/04/11 07:28:21;;;;;;;3.58;3.10;;;5.00;99.90;;;;;;5017267;28;20209;-36
2021/04/11 07:30:58;;;;;;;4.88;2.25;;;5.00;99.90;;;;;;5013636;28;20708;-36
2021/04/11 07:34:00;;;;;;;14.20;3.25;;;5.00;99.90;;;;;;5042930;28;20212;-36
2021/04/11 07:36:50;;;;;;;3.33;2.00;;;5.00;99.90;;;;;;5038301;28;20214;-36
2021/04/11 07:39:48;;;;;;;4.22;2.03;;;5.00;99.90;;;;;;5048221;28;20679;-38
2021/04/11 07:42:51;;;;;;;6.05;2.28;;;4.90;99.90;;;;;;5082644;28;20209;-40
2021/04/11 07:45:35;;;;;;;5.90;2.70;;;4.70;99.90;;;;;;5077923;28;20220;-38
2021/04/11 07:48:37;;;;;;;5.70;2.83;;;4.70;99.90;;;;;;5077722;28;20270;-39
2021/04/11 07:51:36;;;;;;;8.60;2.80;;;4.80;99.90;;;;;;5081558;28;20213;-39
2021/04/11 07:54:46;;;;;;;7.28;2.42;;;4.70;99.90;;;;;;5082877;28;20330;-38
2021/04/11 07:57:43;;;;;;;4.75;2.85;;;4.70;99.90;;;;;;5070880;28;20193;-37
2021/04/11 08:00:25;;;;;;;8.82;2.47;;;4.70;99.90;;;;;;5042157;28;20229;-35
2021/04/11 08:03:20;;;;;;;4.75;3.05;;;4.70;99.90;;;;;;5079077;28;20237;-37
2021/04/11 08:06:39;;;;;;;6.35;2.80;;;4.60;99.90;;;;;;5082700;28;20193;-36
2021/04/11 08:09:20;;;;;;;5.28;2.53;;;4.70;99.90;;;;;;5021455;28;20210;-38
2021/04/11 08:12:25;;;;;;;2.70;2.08;;;4.70;99.90;;;;;;5022307;28;20682;-38
2021/04/11 08:15:02;;;;;;;9.60;2.40;;;4.70;99.90;;;;;;5009696;28;20199;-35
2021/04/11 08:17:52;;;;;;;6.07;2.60;;;4.60;99.90;;;;;;5034170;28;20216;-35
2021/04/11 08:20:43;;;;;;;4.15;2.58;;;4.60;99.90;;;;;;5061842;28;20304;-37
2021/04/11 08:23:43;;;;;;;6.43;2.70;;;4.60;99.90;;;;;;5053999;28;20261;-38
2021/04/11 08:26:35;;;;;;;5.32;2.10;;;4.50;99.90;;;;;;5061780;28;20567;-39
2021/04/11 08:29:34;;;;;;;4.90;3.50;;;4.50;99.90;;;;;;5030962;28;20210;-39
2021/04/11 08:32:42;;;;;;;3.40;1.70;;;4.50;99.90;;;;;;5060257;28;20297;-39
2021/04/11 08:35:23;;;;;;;6.07;2.00;;;4.50;99.90;;;;;;5042203;28;20229;-39
2021/04/11 08:38:17;;;;;;;4.55;1.95;;;4.40;99.90;;;;;;5061258;28;20202;-35
2021/04/11 08:41:03;;;;;;;5.18;2.97;;;4.40;99.90;;;;;;5108065;28;20212;-36
2021/04/11 08:44:03;;;;;;;7.57;2.47;;;4.40;99.90;;;;;;5124389;28;20204;-39
2021/04/11 08:46:57;;;;;;;3.97;2.20;;;4.30;99.90;;;;;;5124554;28;20636;-35
2021/04/11 08:49:37;;;;;;;7.93;2.58;;;4.20;99.90;;;;;;5124393;28;20199;-36
2021/04/11 08:52:17;;;;;;;6.72;2.60;;;4.10;99.90;;;;;;5124165;28;20635;-36
2021/04/11 08:54:52;;;;;;;4.35;1.83;;;4.10;99.90;;;;;;5124863;28;20253;-38
2021/04/11 08:57:43;;;;;;;3.83;2.28;;;4.00;99.90;;;;;;5123470;28;20297;-34
2021/04/11 09:00:20;;;;;;;4.18;2.30;;;3.90;99.90;;;;;;5119960;28;20678;-37
2021/04/11 09:03:13;;;;;;;5.22;2.10;;;3.90;99.90;;;;;;5114005;28;20203;-36
2021/04/11 09:05:55;;;;;;;4.43;2.53;;;3.90;99.90;;;;;;5123863;28;20195;-36
2021/04/11 09:08:32;;;;;;;5.93;2.30;;;3.80;99.90;;;;;;5123883;28;20624;-37
2021/04/11 09:11:32;;;;;;;5.47;2.42;;;3.80;99.90;;;;;;5124887;28;20260;-37
2021/04/11 09:14:24;;;;;;;2.95;2.15;;;3.70;99.90;;;;;;5123634;28;20203;-36
2021/04/11 09:17:13;;;;;;;6.80;2.30;;;3.70;99.90;;;;;;5123618;28;20241;-39
2021/04/11 09:19:53;;;;;;;7.13;2.10;;;3.70;99.90;;;;;;5123054;28;20224;-38
2021/04/11 09:22:39;;;;;;;3.65;2.22;;;3.60;99.90;;;;;;5119872;28;20289;-39
2021/04/11 09:25:15;;;;;;;6.25;2.33;;;3.40;99.90;;;;;;5125136;28;20192;-39
2021/04/11 09:28:23;;;;;;;3.97;2.08;;;3.40;99.90;;;;;;5123500;28;20195;-39
2021/04/11 09:31:28;;;;;;;8.05;2.15;;;3.40;99.90;;;;;;5121646;28;20187;-37
2021/04/11 09:34:33;;;;;;;11.88;4.35;;;3.40;99.90;;;;;;5124729;28;20210;-36
2021/04/11 09:37:16;;;;;;;2.47;2.10;;;3.40;99.90;;;;;;5087845;28;20222;-37
2021/04/11 09:40:16;;;;;;;5.03;3.15;;;3.30;99.90;;;;;;5121632;28;20224;-36
2021/04/11 09:43:00;;;;;;;6.28;2.40;;;3.30;99.90;;;;;;5122861;28;20196;-36
2021/04/11 09:45:46;;;;;;;7.40;2.72;;;3.20;99.90;;;;;;5123253;28;20266;-36
2021/04/11 09:48:29;;;;;;;3.55;1.90;;;3.20;99.90;;;;;;5123506;28;20200;-38
2021/04/11 09:51:15;;;;;;;7.95;2.90;;;3.20;99.90;;;;;;5119563;28;20245;-36
2021/04/11 09:54:05;;;;;;;3.47;3.00;;;3.10;99.90;;;;;;5123183;28;20199;-38
2021/04/11 09:57:13;;;;;;;6.68;2.30;;;3.00;99.90;;;;;;5120271;28;20204;-35
2021/04/11 10:00:05;;;;;;;4.30;1.95;;;2.90;99.90;;;;;;5020153;28;20226;-36
2021/04/11 10:03:09;;;;;;;6.55;2.95;;;3.00;99.90;;;;;;5018554;28;20203;-37
2021/04/11 10:05:52;;;;;;;3.85;2.33;;;3.00;99.90;;;;;;5005041;28;20203;-38
2021/04/11 10:08:56;;;;;;;5.97;2.30;;;2.80;99.90;;;;;;5020816;28;20235;-38
2021/04/11 10:11:40;;;;;;;4.20;2.45;;;2.90;99.90;;;;;;5006953;28;20255;-39
2021/04/11 10:14:26;;;;;;;6.53;2.47;;;2.80;99.90;;;;;;5020070;28;20202;-37
2021/04/11 10:17:03;;;;;;;3.78;2.22;;;2.80;99.90;;;;;;5019263;28;20199;-34
2021/04/11 10:19:57;;;;;;;7.28;3.53;;;2.80;99.90;;;;;;5020961;28;20273;-37
2021/04/11 10:22:43;;;;;;;5.07;2.22;;;2.70;99.90;;;;;;5020088;28;20107;-35
2021/04/11 10:25:28;;;;;;;3.58;2.67;;;2.60;99.90;;;;;;5020680;28;20239;-39
2021/04/11 10:28:12;;;;;;;4.80;2.78;;;2.60;99.90;;;;;;5018682;28;20352;-37
2021/04/11 10:30:47;;;;;;;10.68;3.00;;;2.60;99.90;;;;;;5016967;28;20667;-35
2021/04/11 10:33:24;;;;;;;4.95;3.65;;;2.60;99.90;;;;;;5007752;28;20655;-37
2021/04/11 10:36:02;;;;;;;3.85;2.58;;;2.60;99.90;;;;;;5093439;28;20617;-34
2021/04/11 10:38:35;;;;;;;11.65;2.80;;;2.60;99.90;;;;;;5122756;28;20224;-37
2021/04/11 10:41:16;;;;;;;6.38;2.28;;;2.60;99.90;;;;;;5123392;28;20207;-36
2021/04/11 10:44:17;;;;;;;3.40;2.53;;;2.60;99.90;;;;;;5122986;28;20221;-36
2021/04/11 10:47:00;;;;;;;5.50;2.30;;;2.50;99.90;;;;;;5120346;28;20202;-34
2021/04/11 10:49:42;;;;;;;5.15;2.47;;;2.40;99.90;;;;;;5116547;28;20188;-36
2021/04/11 10:52:28;;;;;;;5.88;2.45;;;2.40;99.90;;;;;;5122692;28;20196;-35
2021/04/11 10:55:36;;;;;;;4.30;2.13;;;2.30;99.90;;;;;;5119584;28;20208;-37
2021/04/11 10:58:38;;;;;;;3.63;2.75;;;2.30;99.90;;;;;;5120112;28;20689;-35
2021/04/11 11:01:34;;;;;;;4.97;2.47;;;2.20;99.90;;;;;;5102505;28;20204;-37
2021/04/11 11:04:25;;;;;;;7.95;3.75;;;2.10;99.90;;;;;;5123265;28;20196;-34
2021/04/11 11:07:25;;;;;;;3.67;2.92;;;2.00;99.90;;;;;;5122513;28;20273;-38
2021/04/11 11:10:07;;;;;;;10.00;3.05;;;2.10;99.90;;;;;;5118670;28;20204;-35
2021/04/11 11:13:11;;;;;;;4.70;2.83;;;2.10;99.90;;;;;;5121968;28;20215;-37
2021/04/11 11:16:14;;;;;;;3.67;2.60;;;2.10;99.90;;;;;;5122147;28;20219;-36
2021/04/11 11:19:16;;;;;;;5.03;2.50;;;2.10;99.90;;;;;;5079734;28;20201;-36
2021/04/11 11:22:17;;;;;;;4.75;2.72;;;2.00;99.90;;;;;;5079657;28;20326;-37
2021/04/11 11:25:34;;;;;;;3.55;2.28;;;2.10;99.90;;;;;;5068273;28;20319;-36
2021/04/11 11:28:34;;;;;;;5.30;3.25;;;2.00;99.90;;;;;;5000244;28;20199;-36
2021/04/11 11:31:20;;;;;;;4.43;3.85;;;2.00;99.90;;;;;;5041982;28;20211;-34
2021/04/11 11:34:03;;;;;;;7.70;4.60;;;1.90;99.90;;;;;;5036908;28;20209;-35
2021/04/11 11:36:39;;;;;;;7.05;4.90;;;1.80;99.90;;;;;;5043136;28;20269;-38
2021/04/11 11:39:23;;;;;;;8.93;5.20;;;1.80;99.90;;;;;;5042688;28;20706;-36
2021/04/11 11:42:00;;;;;;;10.80;5.05;;;1.90;99.90;;;;;;5041102;28;20253;-38
2021/04/11 11:44:34;;;;;;;6.68;3.72;;;1.90;99.90;;;;;;5043038;28;20238;-37
2021/04/11 11:47:13;;;;;;;7.60;3.40;;;1.80;99.90;;;;;;5037282;28;20266;-36
2021/04/11 11:49:47;;;;;;;5.35;3.28;;;1.80;99.90;;;;;;5043291;28;20206;-35
2021/04/11 11:52:24;;;;;;;3.92;2.90;;;1.80;99.90;;;;;;5043211;28;20202;-37
2021/04/11 11:54:59;;;;;;;3.20;2.90;;;1.80;99.90;;;;;;5057868;28;20224;-38
2021/04/11 11:57:41;;;;;;;5.75;2.72;;;1.80;99.90;;;;;;5062076;28;20201;-36
2021/04/11 12:00:17;;;;;;;5.05;3.15;;;1.80;99.90;;;;;;5062004;28;20781;-35
2021/04/11 12:02:57;;;;;;;6.50;2.80;;;1.80;99.90;;;;;;5078520;28;20199;-36
2021/04/11 12:05:34;;;;;;;5.43;2.75;;;1.80;99.90;;;;;;5125731;28;20264;-38
2021/04/11 12:08:14;;;;;;;4.55;2.50;;;1.90;99.90;;;;;;5125079;28;20211;-32
2021/04/11 12:10:50;;;;;;;3.97;2.55;;;1.80;99.90;;;;;;5125902;28;20211;-38
2021/04/11 12:13:36;;;;;;;4.43;2.70;;;1.70;99.90;;;;;;5125212;28;20285;-37
2021/04/11 12:16:14;;;;;;;5.65;3.13;;;1.70;99.90;;;;;;5124814;28;20215;-36
2021/04/11 12:18:52;;;;;;;6.40;4.22;;;1.70;99.90;;;;;;5120429;28;20222;-34
2021/04/11 12:21:29;;;;;;;6.38;4.43;;;1.70;99.90;;;;;;5125408;28;20196;-35
2021/04/11 12:24:04;;;;;;;5.13;2.70;;;1.70;99.90;;;;;;5125041;28;20302;-37
2021/04/11 12:26:40;;;;;;;6.13;3.40;;;1.60;99.90;;;;;;5124376;28;20221;-37
2021/04/11 12:29:13;;;;;;;5.60;3.00;;;1.50;99.90;;;;;;5125094;28;20253;-35
2021/04/11 12:31:45;;;;;;;8.40;3.50;;;1.50;99.90;;;;;;5124979;28;20207;-37
2021/04/11 12:34:36;;;;;;;6.40;3.55;;;1.60;99.90;;;;;;5124917;28;21223;-37
2021/04/11 12:37:17;;;;;;;5.85;3.45;;;1.60;99.90;;;;;;5124716;28;20203;-38
2021/04/11 12:39:48;;;;;;;7.05;3.53;;;1.50;99.90;;;;;;5125502;28;20225;-38
2021/04/11 12:42:32;;;;;;;7.15;3.50;;;1.50;99.90;;;;;;5122535;28;20214;-35
2021/04/11 12:45:13;;;;;;;4.55;4.15;;;1.50;99.90;;;;;;5124334;28;20539;-34
2021/04/11 12:47:50;;;;;;;8.73;4.25;;;1.40;99.90;;;;;;5123462;28;20191;-34
2021/04/11 12:50:29;;;;;;;7.57;4.05;;;1.40;99.90;;;;;;5124692;28;20192;-38
2021/04/11 12:53:18;;;;;;;6.07;3.40;;;1.30;99.90;;;;;;5124772;28;20273;-35
2021/04/11 12:55:55;;;;;;;6.20;3.97;;;1.30;99.90;;;;;;5124525;28;20356;-34
2021/04/11 12:58:30;;;;;;;6.97;4.53;;;1.40;99.90;;;;;;5123479;28;20192;-37
2021/04/11 13:01:12;;;;;;;5.90;3.53;;;1.40;99.90;;;;;;5124496;28;20223;-35
2021/04/11 13:03:56;;;;;;;6.20;3.90;;;1.40;99.90;;;;;;5125647;28;20203;-38
2021/04/11 13:06:32;;;;;;;4.30;3.30;;;1.40;99.90;;;;;;5124615;28;20291;-37
2021/04/11 13:09:19;;;;;;;5.45;3.72;;;1.30;99.90;;;;;;5124463;28;20202;-37
2021/04/11 13:11:59;;;;;;;6.88;3.60;;;1.20;99.90;;;;;;5123412;28;20218;-38
2021/04/11 13:14:34;;;;;;;4.45;3.95;;;1.20;99.90;;;;;;5124466;28;20195;-36
2021/04/11 13:17:09;;;;;;;8.25;3.30;;;1.20;99.90;;;;;;5123813;28;20340;-34
2021/04/11 13:19:45;;;;;;;6.88;3.70;;;1.20;99.90;;;;;;5123750;28;20307;-38
2021/04/11 13:22:18;;;;;;;5.22;4.28;;;1.10;99.90;;;;;;5123869;28;20198;-39
2021/04/11 13:24:57;;;;;;;6.85;3.50;;;1.20;99.90;;;;;;5124249;28;20207;-33
2021/04/11 13:27:33;;;;;;;5.95;3.38;;;1.20;99.90;;;;;;5117674;28;20218;-38
2021/04/11 13:30:08;;;;;;;4.03;3.72;;;1.20;99.90;;;;;;5123811;28;20243;-38
2021/04/11 13:32:46;;;;;;;5.97;4.85;;;1.30;99.90;;;;;;5124080;28;20204;-37
2021/04/11 13:35:22;;;;;;;6.22;3.90;;;1.30;99.90;;;;;;5124111;28;20218;-39
2021/04/11 13:37:56;;;;;;;5.90;3.40;;;1.20;99.90;;;;;;5123573;28;20196;-37
2021/04/11 13:40:29;;;;;;;5.50;3.80;;;1.20;99.90;;;;;;5124587;28;20233;-36
2021/04/11 13:43:16;;;;;;;6.22;3.55;;;1.20;99.90;;;;;;5122760;28;20204;-35
2021/04/11 13:45:59;;;;;;;6.43;3.95;;;1.30;99.90;;;;;;5123269;28;20223;-34
2021/04/11 13:48:40;;;;;;;8.45;3.90;;;1.20;99.90;;;;;;5123868;28;20233;-38
2021/04/11 13:51:51;;;;;;;8.15;3.85;;;1.20;99.90;;;;;;5123140;28;20281;-33
2021/04/11 13:54:30;;;;;;;5.95;3.35;;;1.20;99.90;;;;;;5112746;28;20215;-33
2021/04/11 13:57:34;;;;;;;5.00;3.72;;;1.20;99.90;;;;;;5122916;28;20241;-36
2021/04/11 14:00:26;;;;;;;7.32;4.03;;;1.20;99.90;;;;;;5040775;28;20241;-37
2021/04/11 14:03:13;;;;;;;4.40;3.70;;;1.30;99.90;;;;;;5040319;28;20217;-34
2021/04/11 14:05:51;;;;;;;129.40;21.52;;;1.30;99.90;;;;;;5040769;28;20281;-36
2021/04/11 14:08:28;;;;;;;184.80;34.47;;;1.40;99.90;;;;;;5039496;28;20194;-35
2021/04/11 14:11:08;;;;;;;5.60;5.00;;;1.50;99.90;;;;;;5039746;28;20206;-37
2021/04/11 14:13:43;;;;;;;7.65;4.70;;;1.80;99.90;;;;;;5039534;28;20253;-36